Time;durP1;ratioP1;P1;durP2;ratioP2;P2;SDS_P1;SDS_P2;PMS_P1;PMS_P2;Temp;Humidity;BMP_temperature;BMP_pressure;BME280_temperature;BME280_humidity;BME280_pressure;Samples;Min_cycle;Max_cycle;Signal;HPM_P1;HPM_P2
2021/03/31 00:00:27;;;;;;;0.70;0.60;;;11.90;50.60;;;11.81;100.00;-21003.34;4995294;28;20875;-69
2021/03/31 00:02:57;;;;;;;0.70;0.53;;;11.60;52.90;;;11.63;100.00;-20998.38;4995477;28;20422;-70
2021/03/31 00:05:24;;;;;;;0.70;0.50;;;11.30;53.30;;;11.52;100.00;-20995.47;4995747;28;20439;-70
2021/03/31 00:07:52;;;;;;;0.70;0.60;;;11.10;54.00;;;11.30;100.00;-20989.41;4995157;28;20446;-71
2021/03/31 00:10:24;;;;;;;0.70;0.60;;;10.90;55.10;;;11.07;100.00;-20983.31;5001454;28;20454;-70
2021/03/31 00:12:52;;;;;;;0.70;0.60;;;10.80;55.90;;;10.81;100.00;-20976.25;4996295;28;20443;-70
2021/03/31 00:15:19;;;;;;;0.70;0.60;;;10.50;58.60;;;10.63;100.00;-20971.41;4995083;28;20431;-71
2021/03/31 00:17:47;;;;;;;0.70;0.60;;;10.30;60.30;;;10.57;100.00;-20969.75;4995622;28;20505;-71
2021/03/31 00:20:16;;;;;;;0.70;0.60;;;10.10;62.40;;;10.42;100.00;-20965.47;4995483;28;20485;-71
2021/03/31 00:22:44;;;;;;;0.70;0.60;;;10.10;65.30;;;10.30;100.00;-20962.44;4995502;28;20439;-71
2021/03/31 00:25:13;;;;;;;0.70;0.60;;;10.00;65.80;;;10.34;100.00;-20963.53;4992952;28;20932;-71
2021/03/31 00:27:40;;;;;;;0.70;0.60;;;10.10;68.20;;;10.38;100.00;-20964.66;4993419;28;20453;-71
2021/03/31 00:30:12;;;;;;;0.70;0.60;;;9.90;67.60;;;10.35;100.00;-20963.69;4993188;28;20821;-71
2021/03/31 00:32:40;;;;;;;0.70;0.60;;;9.90;68.90;;;10.31;100.00;-20962.56;4993333;28;20829;-71
2021/03/31 00:35:09;;;;;;;0.70;0.60;;;9.90;71.20;;;10.26;100.00;-20961.19;4994105;28;20470;-71
2021/03/31 00:37:37;;;;;;;0.70;0.60;;;9.90;70.00;;;10.41;100.00;-20965.34;4993653;28;20470;-71
2021/03/31 00:40:09;;;;;;;0.70;0.53;;;10.20;68.90;;;10.58;100.00;-20970.03;4993717;28;20447;-71
2021/03/31 00:42:36;;;;;;;0.70;0.60;;;10.40;63.60;;;10.74;100.00;-20974.31;4995403;28;20442;-70
2021/03/31 00:45:07;;;;;;;0.80;0.60;;;10.50;61.90;;;10.85;100.00;-20977.22;4994930;28;20429;-71
2021/03/31 00:47:34;;;;;;;0.70;0.60;;;10.70;61.40;;;10.99;100.00;-20981.09;4993488;28;20835;-70
2021/03/31 00:50:05;;;;;;;0.70;0.60;;;10.70;60.40;;;10.98;100.00;-20980.81;4993349;28;20489;-70
2021/03/31 00:52:33;;;;;;;0.70;0.53;;;10.70;59.50;;;10.84;100.00;-20977.09;4993911;28;20415;-71
2021/03/31 00:55:01;;;;;;;0.70;0.50;;;10.60;60.00;;;10.72;100.00;-20973.78;4995035;28;20498;-71
2021/03/31 00:57:28;;;;;;;0.70;0.50;;;10.50;61.40;;;10.70;100.00;-20973.09;4994523;28;20485;-70
2021/03/31 00:59:55;;;;;;;0.90;0.73;;;10.40;61.50;;;10.85;100.00;-20977.22;4994550;28;20435;-70
2021/03/31 01:02:23;;;;;;;0.70;0.60;;;10.50;61.00;;;10.87;100.00;-20977.78;4992983;28;20927;-70
2021/03/31 01:04:50;;;;;;;0.70;0.60;;;10.70;61.50;;;11.03;100.00;-20982.22;4999953;28;20561;-70
2021/03/31 01:07:17;;;;;;;0.70;0.60;;;10.70;59.50;;;11.05;100.00;-20982.75;4998553;28;20955;-70
2021/03/31 01:09:45;;;;;;;1.00;0.90;;;10.80;59.00;;;10.92;100.00;-20979.16;4994943;28;20526;-70
2021/03/31 01:12:22;;;;;;;0.70;0.60;;;10.70;58.30;;;10.85;100.00;-20977.22;4993673;28;20431;-70
2021/03/31 01:15:00;;;;;;;0.70;0.60;;;10.60;59.00;;;10.67;100.00;-20972.25;4993329;28;20911;-70
2021/03/31 01:17:34;;;;;;;0.70;0.60;;;10.40;61.00;;;10.58;100.00;-20970.03;4994136;28;20462;-70
2021/03/31 01:20:55;;;;;;;0.70;0.60;;;10.30;60.30;;;10.64;100.00;-20971.56;4977324;28;20541;-70
2021/03/31 01:24:36;;;;;;;0.70;0.50;;;10.30;60.80;;;10.72;100.00;-20973.63;4977860;28;20451;-70
2021/03/31 01:27:11;;;;;;;0.80;0.60;;;10.60;60.30;;;10.56;100.00;-20969.47;4968182;28;20442;-70
2021/03/31 01:30:05;;;;;;;0.70;0.60;;;10.30;61.00;;;10.52;100.00;-20968.25;4993359;28;20541;-70
2021/03/31 01:33:05;;;;;;;0.70;0.60;;;10.20;62.80;;;10.46;100.00;-20966.59;4992477;28;20530;-70
2021/03/31 01:35:34;;;;;;;0.70;0.60;;;9.90;64.20;;;10.41;100.00;-20965.34;4990120;28;20754;-70
2021/03/31 01:38:06;;;;;;;0.70;0.50;;;9.90;65.50;;;10.33;100.00;-20963.13;4992787;28;20546;-71
2021/03/31 01:40:40;;;;;;;0.70;0.60;;;9.80;65.70;;;10.45;100.00;-20966.44;4993009;28;20860;-70
2021/03/31 01:43:12;;;;;;;0.70;0.60;;;10.00;64.40;;;10.58;100.00;-20970.03;4993057;28;20445;-70
2021/03/31 01:45:41;;;;;;;0.90;0.90;;;10.00;63.80;;;10.36;100.00;-20963.94;4993715;28;20438;-70
2021/03/31 01:48:14;;;;;;;0.70;0.60;;;10.10;65.10;;;10.34;100.00;-20963.41;4993887;28;20494;-70
2021/03/31 01:50:45;;;;;;;0.80;0.70;;;10.10;64.60;;;10.31;100.00;-20962.56;4993844;28;20420;-70
2021/03/31 01:53:16;;;;;;;3.33;1.77;;;10.10;65.70;;;10.31;100.00;-20962.56;4992792;28;20441;-70
2021/03/31 01:55:45;;;;;;;0.70;0.60;;;10.10;65.60;;;10.20;100.00;-20959.66;4994001;28;20423;-70
2021/03/31 01:58:13;;;;;;;0.70;0.60;;;9.80;67.90;;;10.05;100.00;-20955.66;4992154;28;20866;-70
2021/03/31 02:00:41;;;;;;;0.70;0.60;;;9.70;68.50;;;10.17;100.00;-20958.81;4993440;28;20807;-70
2021/03/31 02:03:09;;;;;;;0.70;0.50;;;10.00;67.00;;;10.20;100.00;-20959.50;4976489;28;20475;-70
2021/03/31 02:05:37;;;;;;;0.70;0.60;;;10.20;66.60;;;10.18;100.00;-20958.97;4999886;28;20473;-71
2021/03/31 02:08:06;;;;;;;0.70;0.60;;;10.10;66.40;;;10.11;100.00;-20957.31;5005429;28;20431;-70
2021/03/31 02:10:33;;;;;;;1.83;1.43;;;9.90;69.50;;;10.21;100.00;-20959.78;4993361;28;20434;-70
2021/03/31 02:13:03;;;;;;;0.70;0.60;;;10.00;66.80;;;10.26;100.00;-20961.19;4993509;28;20529;-70
2021/03/31 02:15:32;;;;;;;0.70;0.60;;;10.20;64.30;;;10.30;100.00;-20962.28;4992728;28;20469;-70
2021/03/31 02:18:04;;;;;;;0.80;0.60;;;10.20;66.60;;;10.34;100.00;-20963.41;4993617;28;20548;-70
2021/03/31 02:20:31;;;;;;;0.87;0.77;;;10.20;64.50;;;10.30;100.00;-20962.28;4994031;28;20768;-70
2021/03/31 02:23:01;;;;;;;0.70;0.60;;;10.20;65.40;;;10.10;100.00;-20956.88;4991997;28;20999;-70
2021/03/31 02:25:32;;;;;;;0.70;0.60;;;9.90;65.70;;;10.01;100.00;-20954.53;4992033;28;21281;-70
2021/03/31 02:27:59;;;;;;;0.70;0.60;;;9.80;67.50;;;9.83;100.00;-20949.56;4991995;28;20427;-70
2021/03/31 02:30:29;;;;;;;0.70;0.60;;;9.60;69.70;;;9.81;100.00;-20949.13;4992933;28;20454;-70
2021/03/31 02:33:00;;;;;;;0.70;0.60;;;9.50;70.50;;;9.61;100.00;-20943.75;4992151;28;20431;-71
2021/03/31 02:35:31;;;;;;;0.70;0.60;;;9.40;72.40;;;9.56;100.00;-20942.22;4993510;28;20415;-70
2021/03/31 02:38:02;;;;;;;0.70;0.50;;;9.30;73.70;;;9.51;100.00;-20940.97;4996858;28;20461;-70
2021/03/31 02:40:31;;;;;;;0.70;0.60;;;9.40;74.70;;;9.48;100.00;-20940.13;5006061;28;20500;-70
2021/03/31 02:43:01;;;;;;;0.70;0.50;;;9.30;75.10;;;9.34;100.00;-20936.25;4996768;28;20852;-70
2021/03/31 02:45:30;;;;;;;0.70;0.60;;;9.00;76.90;;;9.28;100.00;-20934.72;4992131;28;20419;-71
2021/03/31 02:48:02;;;;;;;0.70;0.60;;;9.00;78.30;;;9.23;100.00;-20933.22;4993712;28;20426;-71
2021/03/31 02:50:31;;;;;;;0.70;0.60;;;9.00;78.80;;;9.29;100.00;-20935.00;4997309;28;20411;-70
2021/03/31 02:52:59;;;;;;;0.80;0.70;;;9.00;80.30;;;9.28;100.00;-20934.59;4979690;28;20449;-70
2021/03/31 02:55:27;;;;;;;0.70;0.60;;;9.10;81.10;;;9.34;100.00;-20936.25;4997076;28;20788;-71
2021/03/31 02:57:57;;;;;;;0.80;0.70;;;9.30;80.30;;;9.35;100.00;-20936.53;4996435;28;20454;-70
2021/03/31 03:00:25;;;;;;;0.70;0.60;;;9.20;79.20;;;9.25;100.00;-20933.75;4993441;28;20450;-71
2021/03/31 03:02:52;;;;;;;0.73;0.60;;;9.10;81.30;;;9.24;100.00;-20933.47;5003305;28;20442;-71
2021/03/31 03:05:21;;;;;;;0.70;0.60;;;9.10;81.80;;;9.17;100.00;-20931.81;4996801;28;20922;-71
2021/03/31 03:07:49;;;;;;;0.70;0.60;;;9.00;83.20;;;9.21;100.00;-20932.78;4995965;28;20415;-71
2021/03/31 03:10:18;;;;;;;0.80;0.70;;;9.00;82.60;;;9.13;100.00;-20930.72;4996019;28;20914;-71
2021/03/31 03:12:47;;;;;;;0.80;0.60;;;8.90;82.90;;;8.99;100.00;-20926.69;4996841;28;20462;-70
2021/03/31 03:15:19;;;;;;;0.70;0.60;;;8.80;84.30;;;8.93;100.00;-20925.16;4996736;28;20172;-71
2021/03/31 03:17:47;;;;;;;0.70;0.60;;;8.60;85.30;;;8.85;100.00;-20922.94;4996657;28;20537;-71
2021/03/31 03:20:15;;;;;;;0.70;0.60;;;8.50;85.80;;;8.73;100.00;-20919.75;4996631;28;20210;-72
2021/03/31 03:22:47;;;;;;;0.80;0.70;;;8.40;88.80;;;8.64;100.00;-20917.41;4995671;28;20204;-71
2021/03/31 03:25:17;;;;;;;1.45;1.35;;;8.30;90.50;;;8.64;100.00;-20917.41;4996653;28;20419;-71
2021/03/31 03:27:45;;;;;;;1.23;1.00;;;8.30;90.90;;;8.66;100.00;-20917.81;4996435;28;20240;-71
2021/03/31 03:30:16;;;;;;;0.70;0.60;;;8.20;91.50;;;8.50;100.00;-20913.53;4996238;28;20659;-71
2021/03/31 03:32:47;;;;;;;0.70;0.60;;;8.20;92.40;;;8.40;100.00;-20910.75;4995211;28;20258;-71
2021/03/31 03:35:16;;;;;;;0.80;0.60;;;8.10;93.80;;;8.28;100.00;-20907.56;4994882;28;20576;-71
2021/03/31 03:37:44;;;;;;;0.70;0.60;;;8.00;94.30;;;8.25;100.00;-20906.72;4995329;28;20616;-72
2021/03/31 03:40:13;;;;;;;0.70;0.60;;;7.90;95.00;;;8.22;100.00;-20905.91;4995893;28;20632;-71
2021/03/31 03:42:41;;;;;;;0.70;0.60;;;7.80;95.60;;;8.07;100.00;-20901.88;4996278;28;20184;-71
2021/03/31 03:45:12;;;;;;;0.80;0.60;;;7.70;96.80;;;8.14;100.00;-20903.69;4996011;28;20202;-71
2021/03/31 03:47:42;;;;;;;0.80;0.70;;;7.70;97.60;;;8.03;100.00;-20900.63;4995060;28;20660;-71
2021/03/31 03:50:12;;;;;;;0.70;0.60;;;7.70;99.40;;;8.03;100.00;-20900.75;4996322;28;20246;-71
2021/03/31 03:52:41;;;;;;;0.70;0.60;;;7.70;99.10;;;8.26;100.00;-20906.88;4994998;28;20235;-72
2021/03/31 03:55:10;;;;;;;0.70;0.60;;;7.90;97.10;;;8.40;100.00;-20910.75;4995737;28;20254;-71
2021/03/31 03:57:37;;;;;;;0.70;0.60;;;8.20;95.70;;;8.45;100.00;-20912.13;5000986;28;20548;-71
2021/03/31 04:00:12;;;;;;;0.70;0.60;;;8.30;94.20;;;8.59;100.00;-20915.88;4999838;28;20319;-71
2021/03/31 04:02:41;;;;;;;0.70;0.60;;;8.50;92.80;;;8.54;100.00;-20914.63;4995996;28;20183;-71
2021/03/31 04:05:11;;;;;;;0.70;0.60;;;8.40;92.80;;;8.52;100.00;-20913.94;4995757;28;20671;-71
2021/03/31 04:07:38;;;;;;;0.70;0.60;;;8.30;92.90;;;8.61;100.00;-20916.56;4995879;28;20255;-72
2021/03/31 04:10:07;;;;;;;0.70;0.60;;;8.40;92.70;;;8.57;100.00;-20915.31;4995411;28;20677;-71
2021/03/31 04:12:36;;;;;;;0.70;0.60;;;8.30;92.90;;;8.49;100.00;-20913.25;4995750;28;20213;-71
2021/03/31 04:15:08;;;;;;;0.70;0.60;;;8.20;93.10;;;8.37;100.00;-20910.06;4994767;28;20194;-72
2021/03/31 04:17:38;;;;;;;0.70;0.60;;;8.10;92.90;;;8.58;100.00;-20915.59;4995641;28;20221;-71
2021/03/31 04:20:09;;;;;;;0.80;0.70;;;8.30;92.30;;;8.40;100.00;-20910.75;4995702;28;20525;-71
2021/03/31 04:22:36;;;;;;;0.80;0.60;;;8.20;92.70;;;8.34;100.00;-20909.09;4995689;28;20601;-71
2021/03/31 04:25:05;;;;;;;0.80;0.65;;;8.20;93.00;;;8.35;100.00;-20909.34;4995480;28;20262;-71
2021/03/31 04:27:34;;;;;;;0.70;0.60;;;8.20;92.30;;;8.46;100.00;-20912.56;4995504;28;20279;-71
2021/03/31 04:30:04;;;;;;;0.70;0.60;;;8.30;91.80;;;8.49;100.00;-20913.09;4995317;28;20203;-71
2021/03/31 04:32:31;;;;;;;0.70;0.63;;;8.30;91.60;;;8.47;100.00;-20912.69;4995117;28;20187;-71
2021/03/31 04:35:01;;;;;;;0.70;0.50;;;8.20;91.80;;;8.59;100.00;-20916.03;4994783;28;20210;-71
2021/03/31 04:37:29;;;;;;;2.08;1.98;;;8.40;90.40;;;8.56;100.00;-20915.19;4994265;28;20212;-71
2021/03/31 04:39:55;;;;;;;0.75;0.63;;;8.40;90.40;;;8.51;100.00;-20913.81;4993941;28;20226;-71
2021/03/31 04:42:23;;;;;;;0.70;0.60;;;8.30;90.70;;;8.49;100.00;-20913.09;4995129;28;20710;-71
2021/03/31 04:44:50;;;;;;;0.70;0.60;;;8.20;90.70;;;8.51;100.00;-20913.81;4993540;28;20220;-71
2021/03/31 04:47:17;;;;;;;0.70;0.60;;;8.30;92.40;;;8.41;100.00;-20911.03;4993304;28;20176;-70
2021/03/31 04:49:44;;;;;;;0.70;0.60;;;8.30;91.60;;;8.33;100.00;-20908.81;4994804;28;20219;-70
2021/03/31 04:52:11;;;;;;;0.70;0.60;;;8.10;91.50;;;8.35;100.00;-20909.50;4994938;28;20180;-70
2021/03/31 04:54:39;;;;;;;0.70;0.60;;;8.10;91.50;;;8.31;100.00;-20908.25;4993834;28;20211;-71
2021/03/31 04:57:07;;;;;;;0.70;0.60;;;8.10;92.10;;;8.32;100.00;-20908.53;4993873;28;20192;-71
2021/03/31 04:59:33;;;;;;;0.70;0.60;;;8.10;91.80;;;8.26;100.00;-20907.00;4991356;28;20202;-71
2021/03/31 05:02:00;;;;;;;0.70;0.60;;;7.90;91.80;;;8.18;100.00;-20904.91;4994289;28;20724;-71
2021/03/31 05:04:27;;;;;;;0.70;0.60;;;7.90;94.20;;;8.27;100.00;-20907.13;4994331;28;20212;-71
2021/03/31 05:06:54;;;;;;;0.75;0.60;;;7.80;93.80;;;8.18;100.00;-20904.91;4994805;28;20192;-71
2021/03/31 05:09:21;;;;;;;0.70;0.60;;;7.90;93.10;;;8.24;100.00;-20906.44;4993472;28;20206;-70
2021/03/31 05:11:49;;;;;;;0.70;0.60;;;7.90;92.80;;;8.34;100.00;-20909.22;4993151;28;20194;-70
2021/03/31 05:14:15;;;;;;;0.70;0.50;;;8.00;92.60;;;8.57;100.00;-20915.47;4993414;28;20592;-70
2021/03/31 05:16:42;;;;;;;0.70;0.60;;;8.20;91.20;;;8.60;100.00;-20916.16;4995048;28;20187;-70
2021/03/31 05:19:09;;;;;;;0.70;0.60;;;8.40;90.10;;;8.70;100.00;-20918.94;4994646;28;20222;-70
2021/03/31 05:21:36;;;;;;;0.70;0.60;;;8.50;88.40;;;9.00;100.00;-20927.13;4994770;28;20196;-70
2021/03/31 05:24:06;;;;;;;0.70;0.60;;;8.80;85.20;;;9.07;100.00;-20929.06;4994670;28;20192;-70
2021/03/31 05:26:33;;;;;;;0.73;0.60;;;8.90;84.70;;;9.05;100.00;-20928.50;4994022;28;20190;-70
2021/03/31 05:29:00;;;;;;;0.75;0.63;;;8.80;82.70;;;9.04;100.00;-20928.22;4994490;28;20236;-71
2021/03/31 05:31:27;;;;;;;0.70;0.60;;;8.80;83.00;;;9.50;100.00;-20940.69;4998305;28;20672;-70
2021/03/31 05:33:54;;;;;;;0.70;0.60;;;9.20;81.40;;;9.58;100.00;-20942.91;4999191;28;20623;-70
2021/03/31 05:36:21;;;;;;;0.70;0.60;;;9.40;78.90;;;9.51;100.00;-20940.97;4994450;28;20195;-70
2021/03/31 05:38:48;;;;;;;0.70;0.60;;;9.30;77.80;;;9.59;100.00;-20943.19;4994384;28;20687;-70
2021/03/31 05:41:16;;;;;;;0.70;0.60;;;9.40;78.20;;;9.68;100.00;-20945.53;4993433;28;20217;-70
2021/03/31 05:43:43;;;;;;;0.70;0.60;;;9.30;77.20;;;9.88;100.00;-20951.06;4999906;28;20195;-70
2021/03/31 05:46:11;;;;;;;0.70;0.60;;;9.50;75.70;;;9.77;100.00;-20948.03;4993298;28;20195;-70
2021/03/31 05:48:38;;;;;;;0.70;0.60;;;9.40;77.10;;;9.77;100.00;-20947.88;4990975;28;20455;-70
2021/03/31 05:51:06;;;;;;;0.97;0.87;;;9.40;74.70;;;9.73;100.00;-20946.78;4995529;28;20446;-70
2021/03/31 05:53:33;;;;;;;0.70;0.60;;;9.30;76.10;;;10.00;100.00;-20954.25;4995803;28;20470;-70
2021/03/31 05:56:02;;;;;;;0.70;0.60;;;9.50;76.70;;;10.21;100.00;-20959.94;5004090;28;20183;-70
2021/03/31 05:58:30;;;;;;;0.80;0.70;;;9.70;76.80;;;10.39;100.00;-20964.78;5001511;28;20300;-70
2021/03/31 06:00:57;;;;;;;0.70;0.60;;;10.00;73.20;;;10.71;100.00;-20973.34;4993340;28;20431;-70
2021/03/31 06:03:25;;;;;;;0.80;0.60;;;10.40;70.50;;;11.08;100.00;-20983.59;5000123;28;20472;-71
2021/03/31 06:05:55;;;;;;;0.70;0.60;;;10.80;65.80;;;11.45;100.00;-20993.53;4999162;28;20438;-70
2021/03/31 06:08:22;;;;;;;0.73;0.60;;;11.00;63.00;;;11.88;100.00;-21005.16;5004203;28;20430;-70
2021/03/31 06:10:58;;;;;;;0.70;0.60;;;11.30;59.40;;;12.30;100.00;-21016.47;4999656;28;20510;-70
2021/03/31 06:13:26;;;;;;;0.70;0.60;;;11.70;55.90;;;12.63;100.00;-21025.44;4993650;28;20485;-71
2021/03/31 06:15:53;;;;;;;0.70;0.60;;;11.70;53.90;;;12.56;100.00;-21023.50;4990946;28;20545;-70
2021/03/31 06:18:20;;;;;;;0.70;0.60;;;11.70;55.60;;;12.83;100.00;-21030.81;4993547;28;20488;-70
2021/03/31 06:20:56;;;;;;;0.70;0.60;;;11.80;53.30;;;12.84;100.00;-21030.97;4993591;28;20438;-70
2021/03/31 06:26:22;;;;;;;0.70;0.50;;;12.30;50.90;;;13.04;100.00;-21036.63;4997563;28;20508;-70
2021/03/31 06:28:59;;;;;;;0.70;0.60;;;12.20;52.40;;;13.34;100.00;-21044.63;4978089;28;20455;-69
2021/03/31 06:31:41;;;;;;;0.80;0.60;;;12.30;50.20;;;13.57;100.00;-21050.69;4995385;28;20792;-70
2021/03/31 06:34:10;;;;;;;0.80;0.70;;;13.10;47.70;;;13.90;100.00;-21059.78;4996472;28;20464;-70
2021/03/31 06:36:41;;;;;;;0.70;0.60;;;13.10;44.60;;;13.74;100.00;-21055.50;4997508;28;20438;-70
2021/03/31 06:39:25;;;;;;;0.90;0.90;;;12.80;46.10;;;13.30;100.00;-21043.50;4997745;28;20470;-71
2021/03/31 06:41:59;;;;;;;0.70;0.60;;;12.40;48.50;;;13.15;100.00;-21039.38;4995753;28;20454;-70
2021/03/31 06:45:14;;;;;;;0.70;0.60;;;12.30;48.80;;;13.26;100.00;-21042.56;4997741;28;20420;-70
2021/03/31 06:47:39;;;;;;;0.73;0.60;;;12.40;48.20;;;13.62;100.00;-21052.06;4996860;28;20453;-69
2021/03/31 06:50:10;;;;;;;0.70;0.50;;;12.60;46.60;;;13.59;100.00;-21051.22;5003767;28;20438;-69
2021/03/31 06:52:53;;;;;;;0.70;0.63;;;12.70;45.00;;;13.71;100.00;-21054.53;5001504;28;20433;-70
2021/03/31 06:55:20;;;;;;;0.70;0.60;;;12.90;43.60;;;13.94;100.00;-21060.88;5005923;28;20625;-70
2021/03/31 06:58:08;;;;;;;0.70;0.60;;;13.10;44.20;;;14.27;100.00;-21069.69;4999973;28;20456;-69
2021/03/31 07:00:37;;;;;;;0.70;0.53;;;13.30;44.40;;;14.79;100.00;-21083.72;5005380;28;21003;-69
2021/03/31 07:03:08;;;;;;;0.80;0.70;;;13.60;43.30;;;15.32;100.00;-21098.03;4996421;28;20455;-70
2021/03/31 07:05:39;;;;;;;0.80;0.70;;;13.80;41.10;;;15.65;100.00;-21106.97;4997795;28;20422;-70
2021/03/31 07:08:12;;;;;;;0.80;0.70;;;14.00;38.00;;;15.61;100.00;-21105.88;5001444;28;20505;-69
2021/03/31 07:10:45;;;;;;;0.70;0.60;;;14.10;38.10;;;15.79;100.00;-21110.69;5003840;28;21011;-69
2021/03/31 07:13:27;;;;;;;0.80;0.63;;;14.40;36.90;;;16.48;100.00;-21129.09;5002910;28;20432;-70
2021/03/31 07:15:56;;;;;;;0.73;0.60;;;14.50;37.00;;;16.61;100.00;-21132.66;5001219;28;20432;-70
2021/03/31 07:18:25;;;;;;;0.80;0.60;;;14.70;33.80;;;16.77;100.00;-21136.94;5003137;28;20477;-70
2021/03/31 07:20:52;;;;;;;0.80;0.60;;;14.80;34.20;;;16.74;100.00;-21136.25;5005755;28;20425;-70
2021/03/31 07:23:22;;;;;;;0.80;0.63;;;15.10;31.70;;;17.29;100.00;-21150.91;5004292;28;20433;-70
2021/03/31 07:25:50;;;;;;;1.63;0.67;;;15.20;29.70;;;17.50;100.00;-21156.53;5005333;28;20423;-69
2021/03/31 07:28:20;;;;;;;0.80;0.80;;;15.50;28.30;;;17.16;100.00;-21147.50;5003260;28;20926;-70
2021/03/31 07:30:49;;;;;;;1.07;0.77;;;15.50;29.90;;;17.33;100.00;-21152.00;5004122;28;20843;-70
2021/03/31 07:33:21;;;;;;;0.80;0.70;;;15.70;28.10;;;17.52;100.00;-21157.22;4995303;28;20464;-70
2021/03/31 07:35:50;;;;;;;1.57;1.47;;;16.10;26.90;;;17.78;100.00;-21164.22;4996315;28;20450;-69
2021/03/31 07:38:22;;;;;;;0.70;0.60;;;16.20;25.70;;;18.03;100.00;-21170.78;4995366;28;20473;-69
2021/03/31 07:40:51;;;;;;;0.80;0.80;;;16.40;26.60;;;17.93;100.00;-21168.19;4995355;28;20483;-69
2021/03/31 07:43:24;;;;;;;0.70;0.60;;;16.20;25.30;;;18.30;100.00;-21178.19;4995700;28;20438;-70
2021/03/31 07:45:57;;;;;;;0.80;0.60;;;16.50;24.50;;;18.23;100.00;-21176.28;4995329;28;20449;-69
2021/03/31 07:48:25;;;;;;;0.97;0.87;;;16.30;24.10;;;18.24;100.00;-21176.41;4995852;28;20466;-69
2021/03/31 07:50:52;;;;;;;1.63;1.53;;;16.40;25.60;;;18.42;100.00;-21181.22;4993065;28;20973;-69
2021/03/31 07:53:23;;;;;;;0.80;0.70;;;16.60;22.70;;;19.05;100.00;-21198.19;4995268;28;20466;-69
2021/03/31 07:55:55;;;;;;;0.80;0.60;;;17.10;21.80;;;19.44;98.29;-21208.72;4995308;28;20447;-70
2021/03/31 07:58:30;;;;;;;1.03;0.90;;;17.60;19.50;;;19.88;99.04;-21220.34;4996033;28;20557;-70
2021/03/31 08:01:10;;;;;;;1.40;1.30;;;17.50;20.30;;;20.80;97.22;-21244.91;4996372;28;20894;-70
2021/03/31 08:03:41;;;;;;;0.83;0.83;;;17.90;18.20;;;21.32;94.18;-21258.97;4996421;28;20949;-70
2021/03/31 08:06:15;;;;;;;0.80;0.60;;;18.10;17.30;;;22.23;94.01;-21283.09;4987942;28;20437;-70
2021/03/31 08:09:04;;;;;;;0.80;0.80;;;18.40;18.40;;;21.24;94.53;-21256.78;4996292;28;20415;-70
2021/03/31 08:11:55;;;;;;;0.80;0.70;;;18.70;18.10;;;22.54;90.51;-21291.53;4994822;28;20421;-70
2021/03/31 08:14:46;;;;;;;0.80;0.60;;;18.50;14.40;;;22.22;90.41;-21282.84;5001591;28;20426;-71
2021/03/31 08:17:32;;;;;;;0.80;0.60;;;18.60;16.80;;;22.65;87.74;-21294.41;4995444;28;20992;-70
2021/03/31 08:20:00;;;;;;;0.70;0.60;;;18.80;14.10;;;22.86;88.87;-21299.97;4993716;28;20462;-70
2021/03/31 08:22:38;;;;;;;0.80;0.70;;;19.00;14.10;;;22.56;87.87;-21291.94;4991615;28;20442;-70
2021/03/31 08:25:25;;;;;;;0.80;0.70;;;19.20;12.80;;;23.47;86.78;-21316.31;4996455;28;20427;-70
2021/03/31 08:28:03;;;;;;;3.70;1.53;;;18.90;13.40;;;23.74;86.24;-21323.38;4995995;28;20542;-71
2021/03/31 08:30:33;;;;;;;0.70;0.60;;;19.10;13.50;;;22.95;88.93;-21302.31;4995568;28;20450;-71
2021/03/31 08:33:01;;;;;;;0.90;0.80;;;19.60;15.70;;;23.18;85.57;-21308.41;4994807;28;20526;-72
2021/03/31 08:35:29;;;;;;;1.07;0.80;;;19.30;12.10;;;22.93;88.08;-21301.88;4997038;28;20430;-72
2021/03/31 08:37:58;;;;;;;0.80;0.70;;;19.80;14.30;;;23.24;84.89;-21310.06;5001119;28;20906;-72
2021/03/31 08:40:31;;;;;;;0.80;0.80;;;20.20;11.60;;;23.99;82.89;-21330.16;5000556;28;20467;-71
2021/03/31 08:43:05;;;;;;;0.70;0.50;;;20.30;9.40;;;25.23;83.69;-21363.16;4995502;28;20477;-71
2021/03/31 08:45:41;;;;;;;0.80;0.70;;;20.50;10.20;;;25.03;80.12;-21357.84;5000863;28;20430;-71
2021/03/31 08:48:09;;;;;;;0.90;0.77;;;20.10;7.60;;;24.87;82.51;-21353.53;5011825;28;21036;-71
2021/03/31 08:50:40;;;;;;;0.70;0.60;;;20.20;9.80;;;24.53;81.77;-21344.44;4997472;28;20513;-71
2021/03/31 08:53:11;;;;;;;0.80;0.60;;;19.90;8.80;;;24.77;79.55;-21350.81;4998908;28;20443;-72
2021/03/31 08:55:41;;;;;;;1.57;0.97;;;20.10;7.90;;;24.40;81.81;-21340.91;5001284;28;20447;-72
2021/03/31 08:58:11;;;;;;;0.80;0.57;;;20.40;9.40;;;24.39;81.28;-21340.63;4994564;28;20451;-72
2021/03/31 09:00:52;;;;;;;0.83;0.80;;;20.90;9.60;;;23.67;80.19;-21321.47;4994119;28;20445;-71
2021/03/31 09:03:20;;;;;;;1.10;1.00;;;21.20;7.80;;;24.93;81.54;-21355.16;5001733;28;20465;-72
2021/03/31 09:06:00;;;;;;;0.80;0.70;;;21.90;7.20;;;25.86;80.04;-21379.81;4999091;28;20503;-72
2021/03/31 09:08:30;;;;;;;0.80;0.60;;;21.40;6.60;;;25.62;79.11;-21373.31;5002273;28;20449;-73
2021/03/31 09:11:01;;;;;;;1.07;0.70;;;21.40;7.50;;;25.13;78.19;-21360.31;4998885;28;20465;-72
2021/03/31 09:13:34;;;;;;;8.00;2.20;;;21.20;5.30;;;25.25;77.99;-21363.69;5001522;28;20438;-72
2021/03/31 09:16:09;;;;;;;0.80;0.63;;;21.40;5.90;;;25.31;77.33;-21365.19;5003378;28;20557;-73
2021/03/31 09:18:39;;;;;;;0.70;0.60;;;21.50;5.80;;;25.56;79.13;-21371.69;5002508;28;20484;-72
2021/03/31 09:21:07;;;;;;;1.20;0.87;;;22.30;6.90;;;25.72;78.65;-21376.03;5001606;28;20438;-72
2021/03/31 09:23:34;;;;;;;0.70;0.60;;;22.30;5.60;;;26.90;74.51;-21407.31;5002032;28;20431;-72
2021/03/31 09:26:04;;;;;;;0.80;0.60;;;23.00;3.00;;;26.73;75.04;-21402.97;5005021;28;20421;-72
2021/03/31 09:28:32;;;;;;;1.30;0.80;;;22.90;1.80;;;26.52;74.94;-21397.28;5002510;28;20923;-72
2021/03/31 09:31:09;;;;;;;1.20;0.65;;;23.30;2.20;;;26.74;74.60;-21403.25;5001707;28;20679;-72
2021/03/31 09:33:44;;;;;;;0.80;0.70;;;23.20;1.90;;;27.41;73.48;-21420.97;5005051;28;20710;-73
2021/03/31 09:36:16;;;;;;;1.00;0.80;;;23.50;1.00;;;28.28;72.14;-21443.91;4994557;28;20478;-72
2021/03/31 09:38:52;;;;;;;1.53;1.43;;;23.50;1.00;;;28.39;72.72;-21446.75;4995569;28;20462;-73
2021/03/31 09:41:22;;;;;;;1.33;0.60;;;23.60;1.10;;;27.25;71.67;-21416.50;4998246;28;20446;-72
2021/03/31 09:43:50;;;;;;;0.80;0.60;;;23.60;1.00;;;27.71;71.98;-21428.78;4994831;28;20632;-72
2021/03/31 09:46:24;;;;;;;0.97;0.77;;;23.90;1.00;;;27.57;69.26;-21425.00;4993896;28;20435;-72
2021/03/31 09:48:52;;;;;;;2.93;0.80;;;24.00;1.00;;;27.93;71.83;-21434.59;4982721;28;20778;-72
2021/03/31 09:51:21;;;;;;;0.70;0.60;;;24.60;1.00;;;28.02;72.17;-21436.91;4994130;28;20947;-72
2021/03/31 09:53:49;;;;;;;0.70;0.53;;;24.60;1.00;;;28.26;68.01;-21443.38;4994232;28;20522;-72
2021/03/31 09:56:18;;;;;;;0.80;0.60;;;24.20;1.00;;;28.55;68.92;-21450.94;4993917;28;20420;-72
2021/03/31 09:58:48;;;;;;;0.80;0.70;;;24.20;1.00;;;28.30;68.52;-21444.31;4994866;28;20459;-72
2021/03/31 10:01:17;;;;;;;0.80;0.60;;;24.70;1.00;;;28.73;69.15;-21455.66;4992923;28;20443;-72
2021/03/31 10:03:46;;;;;;;0.80;0.57;;;24.70;1.00;;;29.01;68.96;-21463.06;4997098;28;20473;-72
2021/03/31 10:06:23;;;;;;;0.90;0.60;;;25.20;1.00;;;28.82;68.67;-21458.22;5012886;28;20497;-72
2021/03/31 10:08:55;;;;;;;1.13;0.97;;;25.10;1.00;;;27.85;65.91;-21432.59;4998357;28;20438;-72
2021/03/31 10:11:38;;;;;;;0.80;0.60;;;25.20;1.00;;;28.97;65.03;-21462.00;5008803;28;20458;-73
2021/03/31 10:14:18;;;;;;;0.90;0.70;;;25.00;1.00;;;29.30;65.65;-21470.88;5002919;28;20915;-72
2021/03/31 10:16:46;;;;;;;1.10;0.93;;;24.90;1.00;;;29.09;66.71;-21465.38;4990908;28;20438;-72
2021/03/31 10:19:15;;;;;;;1.13;1.03;;;25.70;1.00;;;29.19;66.68;-21467.78;4993219;28;20998;-73
2021/03/31 10:21:43;;;;;;;0.80;0.67;;;25.60;1.00;;;28.58;65.94;-21451.75;4996465;28;20435;-72
2021/03/31 10:24:13;;;;;;;0.80;0.60;;;25.00;1.00;;;28.34;63.50;-21445.41;4999744;28;20427;-72
2021/03/31 10:26:50;;;;;;;1.30;1.20;;;25.10;1.00;;;28.68;64.44;-21454.31;4996123;28;20930;-72
2021/03/31 10:29:31;;;;;;;0.90;0.57;;;25.60;1.00;;;29.18;64.01;-21467.66;4992696;28;20450;-72
2021/03/31 10:32:21;;;;;;;0.97;0.70;;;26.30;1.00;;;28.99;65.13;-21462.53;4993739;28;20441;-72